Main page
METAR-TAF:

METAR-TAF

Airports :

Pskov Airport

Pskov, Russia

latitude: 57-47-06N, longitude: 028-23-54E, elevation: 47 m

Current weather observation

The report was made 55 minutes ago, at 16:00 UTC
Wind 14 kt from the Southwest
Temperature 6°C
Humidity 70%
Pressure 1005 hPa
Visibility 10 km or more

METAR: ULOO 051600Z AUTO 23007MPS 9999 // 06/01 Q1005 RMK QFE750

Time: 19:55 (16:55 UTC)

Forecast

The report was made 2 hours and 58 minutes ago, at 13:57 UTC
Forecast valid from 05 at 15 UTC to 05 at 24 UTC
Wind 12 kt from the Southwest with gusts up to 23 kt
Visibility: 6000 m
Broken clouds at a height of 1500 ft
Temporary
from 05 at 18 UTC to 05 at 24 UTC
Visibility: 3100 m
Broken clouds at a height of 1100 ft
Overcast at a height of 1500 ft
light rain

TAF: ULOO 051357Z 0515/0524 23006G12MPS 6000 BKN015 TEMPO 0518/0524 3100 -RA BKN011 OVC015

Weather observations and forecasts of more than 4000 airports (METAR and TAF reports).

The available stations are represented by yellow and red dots on the map.

Hover mouse over dot to see the name of the station.

Then click to see weather observations and forecasts.

To change the map : click on the green buttons with a black cross to zoom in, on the green button with a dash to zoom out, or on the green arrows for adjacent maps.


METAR-TAF: